地図

経路データ

SID SEASON NUMBER BASIN SUBBASIN NAME ISO_TIME NATURE LAT LON WMO_WIND WMO_PRES WMO_AGENCY TRACK_TYPE DIST2LAND LANDFALL IFLAG USA_AGENCY USA_ATCF_ID USA_LAT USA_LON USA_RECORD USA_STATUS USA_WIND USA_PRES USA_SSHS USA_R34_NE USA_R34_SE USA_R34_SW USA_R34_NW USA_R50_NE USA_R50_SE USA_R50_SW USA_R50_NW USA_R64_NE USA_R64_SE USA_R64_SW USA_R64_NW USA_POCI USA_ROCI USA_RMW USA_EYE TOKYO_LAT TOKYO_LON TOKYO_GRADE TOKYO_WIND TOKYO_PRES TOKYO_R50_DIR TOKYO_R50_LONG TOKYO_R50_SHORT TOKYO_R30_DIR TOKYO_R30_LONG TOKYO_R30_SHORT TOKYO_LAND CMA_LAT CMA_LON CMA_CAT CMA_WIND CMA_PRES HKO_LAT HKO_LON HKO_CAT HKO_WIND HKO_PRES NEWDELHI_LAT NEWDELHI_LON NEWDELHI_GRADE NEWDELHI_WIND NEWDELHI_PRES NEWDELHI_CI NEWDELHI_DP NEWDELHI_POCI REUNION_LAT REUNION_LON REUNION_TYPE REUNION_WIND REUNION_PRES REUNION_TNUM REUNION_CI REUNION_RMW REUNION_R34_NE REUNION_R34_SE REUNION_R34_SW REUNION_R34_NW REUNION_R50_NE REUNION_R50_SE REUNION_R50_SW REUNION_R50_NW REUNION_R64_NE REUNION_R64_SE REUNION_R64_SW REUNION_R64_NW BOM_LAT BOM_LON BOM_TYPE BOM_WIND BOM_PRES BOM_TNUM BOM_CI BOM_RMW BOM_R34_NE BOM_R34_SE BOM_R34_SW BOM_R34_NW BOM_R50_NE BOM_R50_SE BOM_R50_SW BOM_R50_NW BOM_R64_NE BOM_R64_SE BOM_R64_SW BOM_R64_NW BOM_ROCI BOM_POCI BOM_EYE BOM_POS_METHOD BOM_PRES_METHOD NADI_LAT NADI_LON NADI_CAT NADI_WIND NADI_PRES WELLINGTON_LAT WELLINGTON_LON WELLINGTON_WIND WELLINGTON_PRES DS824_LAT DS824_LON DS824_STAGE DS824_WIND DS824_PRES TD9636_LAT TD9636_LON TD9636_STAGE TD9636_WIND TD9636_PRES TD9635_LAT TD9635_LON TD9635_WIND TD9635_PRES TD9635_ROCI NEUMANN_LAT NEUMANN_LON NEUMANN_CLASS NEUMANN_WIND NEUMANN_PRES MLC_LAT MLC_LON MLC_CLASS MLC_WIND MLC_PRES USA_GUST BOM_GUST BOM_GUST_PER REUNION_GUST REUNION_GUST_PER USA_SEAHGT USA_SEARAD_NE USA_SEARAD_SE USA_SEARAD_SW USA_SEARAD_NW STORM_SPEED STORM_DIR
1988169N14259 1988 28 EP MM ALETTA 1988-06-16 18:00:00 TS 14.3000 -101.400 30 1007 hurdat_epa main 324 300 O_________O___ hurdat_epa EP011988 14.3000 -101.400 TD 30 1007 -1 14.3000 -101.400 1 30 5 14
1988169N14259 1988 28 EP MM ALETTA 1988-06-16 21:00:00 TS 14.5580 -101.342 main 290 271 P_________P___ EP011988 14.5575 -101.343 TD 32 1005 -1 14.5594 -101.341 1 32 5 11
1988169N14259 1988 28 EP MM ALETTA 1988-06-17 00:00:00 TS 14.8000 -101.300 35 1004 hurdat_epa main 271 250 O_________O___ hurdat_epa EP011988 14.8000 -101.300 TS 35 1004 0 14.8000 -101.300 2 35 5 6
1988169N14259 1988 28 EP MM ALETTA 1988-06-17 03:00:00 TS 15.0132 -101.287 main 250 229 P_________P___ EP011988 15.0150 -101.285 TS 42 1002 0 15.0078 -101.292 2 38 4 356
1988169N14259 1988 28 EP MM ALETTA 1988-06-17 06:00:00 TS 15.1969 -101.303 50 1000 hurdat_epa main 229 218 O_________P___ hurdat_epa EP011988 15.2000 -101.300 TS 50 1000 0 15.1875 -101.312 2 42 3 350
1988169N14259 1988 28 EP MM ALETTA 1988-06-17 09:00:00 TS 15.3552 -101.345 main 208 200 P_________P___ EP011988 15.3575 -101.342 TS 50 998 0 15.3484 -101.352 2 46 3 342
1988169N14259 1988 28 EP MM ALETTA 1988-06-17 12:00:00 TS 15.5000 -101.400 50 997 hurdat_epa main 200 190 O_________O___ hurdat_epa EP011988 15.5000 -101.400 TS 50 997 0 15.5000 -101.400 2 50 3 342
1988169N14259 1988 28 EP MM ALETTA 1988-06-17 15:00:00 TS 15.6518 -101.447 main 179 173 P_________P___ EP011988 15.6500 -101.450 TS 52 996 0 15.6572 -101.439 2 52 3 344
1988169N14259 1988 28 EP MM ALETTA 1988-06-17 18:00:00 TS 15.8019 -101.496 55 995 hurdat_epa main 173 162 O_________P___ hurdat_epa EP011988 15.8000 -101.500 TS 55 995 0 15.8075 -101.485 2 55 3 342
1988169N14259 1988 28 EP MM ALETTA 1988-06-17 21:00:00 TS 15.9510 -101.547 main 151 144 P_________P___ EP011988 15.9500 -101.550 TS 57 994 0 15.9541 -101.539 2 57 3 342
1988169N14259 1988 28 EP MM ALETTA 1988-06-18 00:00:00 TS 16.1000 -101.600 60 993 hurdat_epa main 144 134 O_________O___ hurdat_epa EP011988 16.1000 -101.600 TS 60 993 0 16.1000 -101.600 2 60 3 343
1988169N14259 1988 28 EP MM ALETTA 1988-06-18 03:00:00 TS 16.2510 -101.645 main 123 119 P_________P___ EP011988 16.2500 -101.643 TS 60 992 0 16.2540 -101.652 2 60 3 342
1988169N14259 1988 28 EP MM ALETTA 1988-06-18 06:00:00 TS 16.4019 -101.703 60 992 hurdat_epa main 119 109 O_________P___ hurdat_epa EP011988 16.4000 -101.700 TS 60 992 0 16.4074 -101.713 2 60 3 335
1988169N14259 1988 28 EP MM ALETTA 1988-06-18 09:00:00 TS 16.5518 -101.787 main 108 108 P_________P___ EP011988 16.5500 -101.785 TS 60 992 0 16.5571 -101.792 2 60 4 327
1988169N14259 1988 28 EP MM ALETTA 1988-06-18 12:00:00 TS 16.7000 -101.900 60 992 hurdat_epa main 108 99 O_________O___ hurdat_epa EP011988 16.7000 -101.900 TS 60 992 0 16.7000 -101.900 2 60 4 322
1988169N14259 1988 28 EP MM ALETTA 1988-06-18 15:00:00 TS 16.8532 -102.035 main 94 94 P_________P___ EP011988 16.8575 -102.035 TS 60 992 0 16.8403 -102.034 2 58 4 316
1988169N14259 1988 28 EP MM ALETTA 1988-06-18 18:00:00 TS 16.9931 -102.199 60 993 hurdat_epa main 94 89 O_________P___ hurdat_epa EP011988 17.0000 -102.200 TS 60 993 0 16.9724 -102.197 2 57 4 307
1988169N14259 1988 28 EP MM ALETTA 1988-06-18 21:00:00 TS 17.1096 -102.386 main 90 81 P_________P___ EP011988 17.1150 -102.385 TS 57 994 0 17.0934 -102.387 2 56 4 298
1988169N14259 1988 28 EP MM ALETTA 1988-06-19 00:00:00 TS 17.2000 -102.600 55 995 hurdat_epa main 84 81 O_________O___ hurdat_epa EP011988 17.2000 -102.600 TS 55 995 0 17.2000 -102.600 2 55 5 290
1988169N14259 1988 28 EP MM ALETTA 1988-06-19 03:00:00 TS 17.2629 -102.837 main 81 81 P_________P___ EP011988 17.2500 -102.843 TS 52 996 0 17.3015 -102.820 2 51 5 285
1988169N14259 1988 28 EP MM ALETTA 1988-06-19 06:00:00 TS 17.3218 -103.091 50 998 hurdat_epa main 91 84 O_________P___ hurdat_epa EP011988 17.3000 -103.100 TS 50 998 0 17.3874 -103.062 2 47 5 288
1988169N14259 1988 28 EP MM ALETTA 1988-06-19 09:00:00 TS 17.4192 -103.338 main 89 81 P_________P___ EP011988 17.4074 -103.342 TS 45 1000 0 17.4546 -103.323 2 43 5 290
1988169N14259 1988 28 EP MM ALETTA 1988-06-19 12:00:00 TS 17.5000 -103.600 40 1002 hurdat_epa main 89 89 O_________O___ hurdat_epa EP011988 17.5000 -103.600 TS 40 1002 0 17.5000 -103.600 2 40 5 280
1988169N14259 1988 28 EP MM ALETTA 1988-06-19 15:00:00 TS 17.5166 -103.892 main 99 99 P_________P___ EP011988 17.5150 -103.893 TS 35 1004 0 17.5216 -103.890 2 36 6 271
1988169N14259 1988 28 EP MM ALETTA 1988-06-19 18:00:00 TS 17.5056 -104.198 30 1006 hurdat_epa main 116 116 O_________P___ hurdat_epa EP011988 17.5000 -104.200 TD 30 1006 -1 17.5225 -104.193 2 32 6 269
1988169N14259 1988 28 EP MM ALETTA 1988-06-19 21:00:00 TS 17.5030 -104.500 main 138 138 P_________P___ EP011988 17.5000 -104.500 TD 27 1007 -1 17.5122 -104.499 2 28 6 269
1988169N14259 1988 28 EP MM ALETTA 1988-06-20 00:00:00 TS 17.5000 -104.800 25 1008 hurdat_epa main 164 164 O_________O___ hurdat_epa EP011988 17.5000 -104.800 TD 25 1008 -1 17.5000 -104.800 1 25 6 270
1988169N14259 1988 28 EP MM ALETTA 1988-06-20 03:00:00 TS 17.5010 -105.102 main 187 187 P_________P___ EP011988 17.5000 -105.108 TD 22 1008 -1 17.5039 -105.086 1 23 6 270
1988169N14259 1988 28 EP MM ALETTA 1988-06-20 06:00:00 TS 17.5018 -105.391 20 1009 hurdat_epa main 200 200 O_________P___ hurdat_epa EP011988 17.5000 -105.400 TD 20 1009 -1 17.5073 -105.365 1 22 5 270
1988169N14259 1988 28 EP MM ALETTA 1988-06-20 09:00:00 TS 17.5017 -105.652 main 212 212 P_________P___ EP011988 17.4999 -105.658 TD 20 1009 -1 17.5071 -105.636 1 21 5 270
1988169N14259 1988 28 EP MM ALETTA 1988-06-20 12:00:00 TS 17.5000 -105.900 20 1010 hurdat_epa main 222 222 O_________O___ hurdat_epa EP011988 17.5000 -105.900 TD 20 1010 -1 17.5000 -105.900 1 20 5 270
1988169N14259 1988 28 EP MM ALETTA 1988-06-20 15:00:00 TS 17.5042 -106.151 main 240 240 P_________P___ EP011988 17.5075 -106.150 TD 20 1010 -1 17.4942 -106.153 1 18 5 269
1988169N14259 1988 28 EP MM ALETTA 1988-06-20 18:00:00 TS 17.4949 -106.400 20 1011 hurdat_epa main 254 254 O_________P___ hurdat_epa EP011988 17.5000 -106.400 TD 20 1011 -1 17.4798 -106.400 1 17 5 264
1988169N14259 1988 28 EP MM ALETTA 1988-06-20 21:00:00 TS 17.4557 -106.649 main 268 268 P_________P___ EP011988 17.4575 -106.650 TD 17 1011 -1 17.4504 -106.647 1 16 5 259
1988169N14259 1988 28 EP MM ALETTA 1988-06-21 00:00:00 TS 17.4000 -106.900 15 1011 hurdat_epa main 299 299 O_________O___ hurdat_epa EP011988 17.4000 -106.900 TD 15 1011 -1 17.4000 -106.900 1 15 5 258
1988169N14259 1988 28 EP MM ALETTA 1988-06-21 03:00:00 TS 17.3548 -107.148 main 314 314 P_________P___ EP011988 17.3649 -107.142 TD 15 1011 -1 17.3243 -107.164 1 15 5 256
1988169N14259 1988 28 EP MM ALETTA 1988-06-21 06:00:00 TS 17.2820 -107.409 15 1012 hurdat_epa main 345 345 O_________P___ hurdat_epa EP011988 17.3000 -107.400 TD 15 1012 -1 17.2279 -107.438 1 15 6 249
1988169N14259 1988 28 EP MM ALETTA 1988-06-21 09:00:00 TS 17.1570 -107.697 main 376 376 P_________P___ EP011988 17.1701 -107.690 TD 15 1012 -1 17.1175 -107.718 1 15 6 243
1988169N14259 1988 28 EP MM ALETTA 1988-06-21 12:00:00 TS 17.0000 -108.000 15 1012 hurdat_epa main 415 O_________O___ hurdat_epa EP011988 17.0000 -108.000 TD 15 1012 -1 17.0000 -108.000 1 15 7 242

IBTrACS Databaseについて

本データベースは、米国NOAAが公開する1842年以降の世界の熱帯低気圧のベストトラックデータアーカイブInternational Best Track Archive for Climate Stewardship (IBTrACS)を、ウェブで閲覧しやすい形式に変換したものです。

最終更新日:2021-10-08